Hlavní strana
METAR-TAF:

METAR-TAF

Letiště :

Bejrút, Libanon

zeměpisná šířka: 33-49N, zeměpisná délka: 035-29E, výška: 29 m

METAR: chybějící

Čas: 08:13 (06:13 UTC)

Předpověď počasí

Zpráva byla vytvořena před 2 hodinami a 13 minutami, v 04:00 UTC
Předpověď platná od 24 v 06 UTC do 25 v 12 UTC
vítr z různých směrů 3 kt
Viditelnost 10 km a více
Žádná oblačnost pod 1500 m, nevyskytují se cumulonimby.
Změna
od 25 v 06 UTC do 25 v 09 UTC
Jihozápadní vítr 6 kt
Viditelnost: 8000 m

TAF: OLBA 240400Z 2406/2512 VRB03KT CAVOK BECMG 2506/2509 23006KT 8000 NSC

Stav a předpovědi počasí z více než 4 000 letišť (zprávy METAR a TAF).

Červené a žluté tečky na mapě představují dostupné meteorologické stanice.

Když kurzor umístíte na tečku, zobrazí se název stanice.

Pak kliknutím zobrazíte stav a předpověď počasí.

Chcete-li změnit mapu, kliknutím na zelené tlačítko se znaménkem +mapu přiblížíte, kliknutím na zelené tlačítko se znaménkem – mapu oddálíte a kliknutím na zelené šipky přejdete na sousední mapy.


METAR-TAF: